createdAt,value
2022-09-27T00:03:44.327Z,0
2022-09-27T00:08:44.349Z,0
2022-09-27T00:13:44.588Z,0
2022-09-27T00:18:44.564Z,0
2022-09-27T00:23:44.131Z,0
2022-09-27T00:28:44.392Z,0
2022-09-27T00:33:44.567Z,0
2022-09-27T00:38:43.780Z,0
2022-09-27T00:43:43.752Z,0
2022-09-27T00:48:43.938Z,0
2022-09-27T00:53:44.115Z,0
2022-09-27T00:58:44.306Z,0
2022-09-27T01:03:44.320Z,0
2022-09-27T01:08:44.558Z,0
2022-09-27T01:13:43.851Z,0
2022-09-27T01:18:43.971Z,0
2022-09-27T01:23:44.186Z,0
2022-09-27T01:28:44.203Z,0
2022-09-27T01:33:44.428Z,0
2022-09-27T01:38:43.779Z,0
2022-09-27T01:43:43.978Z,0
2022-09-27T01:48:44.383Z,0
2022-09-27T01:53:44.473Z,0
2022-09-27T01:58:44.469Z,0
2022-09-27T02:03:43.863Z,0
2022-09-27T02:08:44.050Z,0
2022-09-27T02:13:44.642Z,0
2022-09-27T02:18:43.943Z,0
2022-09-27T02:23:44.164Z,0
2022-09-27T02:28:44.360Z,0
2022-09-27T02:33:44.465Z,0
2022-09-27T02:38:43.984Z,0
2022-09-27T02:43:44.422Z,0
2022-09-27T02:48:44.791Z,0
2022-09-27T02:53:44.413Z,0
2022-09-27T02:58:44.700Z,0
2022-09-27T03:03:43.936Z,0
2022-09-27T03:08:44.502Z,0
2022-09-27T03:14:01.896Z,0
2022-09-27T03:18:44.679Z,0
2022-09-27T03:23:44.099Z,0
2022-09-27T03:28:44.608Z,0
2022-09-27T03:33:43.852Z,0
2022-09-27T03:38:44.125Z,0
2022-09-27T03:43:44.437Z,0
2022-09-27T03:48:44.580Z,0
2022-09-27T03:53:43.887Z,0
2022-09-27T03:58:44.392Z,0
2022-09-27T04:03:43.868Z,0
2022-09-27T04:08:44.037Z,0
2022-09-27T04:13:44.482Z,0
2022-09-27T04:18:43.941Z,0
2022-09-27T04:23:44.222Z,0
2022-09-27T04:28:44.008Z,0
2022-09-27T04:33:44.686Z,0
2022-09-27T04:38:44.076Z,0
2022-09-27T04:43:44.490Z,0
2022-09-27T04:48:44.834Z,0
2022-09-27T04:53:44.073Z,0
2022-09-27T04:58:44.518Z,0
2022-09-27T05:03:43.852Z,0
2022-09-27T05:08:44.269Z,0
2022-09-27T05:13:44.127Z,0
2022-09-27T05:18:44.436Z,0
2022-09-27T05:23:47.359Z,0
2022-09-27T05:28:44.344Z,0
2022-09-27T05:33:44.345Z,0
2022-09-27T05:38:44.515Z,0
2022-09-27T05:43:44.858Z,0
2022-09-27T05:48:44.047Z,0
2022-09-27T05:53:44.575Z,3.3
2022-09-27T05:58:45.142Z,3.3
2022-09-27T06:03:43.938Z,4
2022-09-27T06:08:44.217Z,4
2022-09-27T06:13:44.389Z,6.7
2022-09-27T06:18:44.617Z,6.7
2022-09-27T06:23:44.846Z,11.3
2022-09-27T06:28:44.091Z,11.3
2022-09-27T06:33:44.311Z,17.2
2022-09-27T06:38:44.565Z,17.2
2022-09-27T06:43:44.776Z,8.7
2022-09-27T06:48:43.975Z,8.7
2022-09-27T06:53:44.308Z,21.9
2022-09-27T06:58:44.480Z,21.9
2022-09-27T07:03:44.959Z,31.8
2022-09-27T07:08:44.262Z,31.8
2022-09-27T07:13:44.532Z,32.3
2022-09-27T07:18:44.599Z,32.3
2022-09-27T07:23:44.085Z,31.3
2022-09-27T07:28:44.274Z,31.3
2022-09-27T07:33:44.666Z,18.9
2022-09-27T07:38:44.035Z,18.9
2022-09-27T07:43:44.274Z,20.4
2022-09-27T07:48:44.535Z,20.4
2022-09-27T07:53:44.746Z,24.7
2022-09-27T07:58:44.947Z,24.7
2022-09-27T08:03:44.191Z,16.1
2022-09-27T08:08:44.329Z,16.1
2022-09-27T08:13:44.633Z,34.9
2022-09-27T08:18:44.733Z,34.9
2022-09-27T08:23:44.056Z,54.7
2022-09-27T08:28:44.262Z,54.7
2022-09-27T08:33:44.366Z,70.7
2022-09-27T08:38:44.904Z,70.7
2022-09-27T08:43:44.026Z,76
2022-09-27T08:48:44.185Z,76
2022-09-27T08:53:44.812Z,70.5
2022-09-27T08:58:44.482Z,70.5
2022-09-27T09:03:44.146Z,71.6
2022-09-27T09:08:50.097Z,71.6
2022-09-27T09:13:44.079Z,96.1
2022-09-27T09:18:44.611Z,96.1
2022-09-27T09:23:44.947Z,96.7
2022-09-27T09:28:44.310Z,96.7
2022-09-27T09:33:44.785Z,45.3
2022-09-27T09:38:44.924Z,45.3
2022-09-27T09:43:44.618Z,59.8
2022-09-27T09:48:44.826Z,59.8
2022-09-27T09:53:44.168Z,101.7
2022-09-27T09:58:44.937Z,101.7
2022-09-27T10:03:44.485Z,135.6
2022-09-27T10:08:44.926Z,135.6
2022-09-27T10:13:44.356Z,108.7
2022-09-27T10:18:49.671Z,108.7
2022-09-27T10:23:44.489Z,100
2022-09-27T10:28:44.729Z,100
2022-09-27T10:33:44.898Z,60.4
2022-09-27T10:38:44.186Z,60.4
2022-09-27T10:43:44.526Z,45.8
2022-09-27T10:48:44.769Z,45.8
2022-09-27T10:53:45.001Z,45.6
2022-09-27T10:58:44.405Z,45.6
2022-09-27T11:03:44.526Z,73.8
2022-09-27T11:08:44.267Z,73.8
2022-09-27T11:13:44.683Z,56.2
2022-09-27T11:18:44.832Z,56.2
2022-09-27T11:23:44.935Z,53.9
2022-09-27T11:28:44.068Z,53.9
2022-09-27T11:33:44.270Z,80.7
2022-09-27T11:38:53.161Z,80.7
2022-09-27T11:43:44.639Z,140.7
2022-09-27T11:48:44.860Z,140.7
2022-09-27T11:53:45.011Z,167.5
2022-09-27T11:58:44.453Z,167.5
2022-09-27T12:03:44.569Z,173.7
2022-09-27T12:08:44.826Z,173.7
2022-09-27T12:13:44.159Z,149.9
2022-09-27T12:18:47.999Z,149.9
2022-09-27T12:23:44.097Z,163.1
2022-09-27T12:28:44.295Z,163.1
2022-09-27T12:33:44.449Z,74.2
2022-09-27T12:38:44.583Z,74.2
2022-09-27T12:43:47.325Z,109.9
2022-09-27T12:48:45.036Z,109.9
2022-09-27T12:53:44.426Z,187.1
2022-09-27T12:58:44.724Z,187.1
2022-09-27T13:03:44.969Z,147
2022-09-27T13:08:44.446Z,147
2022-09-27T13:13:44.930Z,126.9
2022-09-27T13:18:45.147Z,126.9
2022-09-27T13:23:45.034Z,116.4
2022-09-27T13:28:44.221Z,116.4
2022-09-27T13:33:44.348Z,92.9
2022-09-27T13:38:44.592Z,92.9
2022-09-27T13:43:44.081Z,81.9
2022-09-27T13:48:44.216Z,81.9
2022-09-27T13:53:44.403Z,105
2022-09-27T13:58:44.329Z,105
2022-09-27T14:03:44.683Z,34.3
2022-09-27T14:08:44.962Z,34.3
2022-09-27T14:13:44.359Z,53.6
2022-09-27T14:18:45.090Z,53.6
2022-09-27T14:23:44.246Z,34.8
2022-09-27T14:28:44.612Z,34.8
2022-09-27T14:33:44.785Z,64.2
2022-09-27T14:38:45.115Z,64.2
2022-09-27T14:43:44.583Z,37.9
2022-09-27T14:48:44.783Z,37.9
2022-09-27T14:53:44.543Z,10.9
2022-09-27T14:58:47.513Z,10.9
2022-09-27T15:03:44.830Z,9.3
2022-09-27T15:08:44.950Z,9.3
2022-09-27T15:13:44.563Z,12.7
2022-09-27T15:18:44.767Z,12.7
2022-09-27T15:23:44.633Z,21.7
2022-09-27T15:28:45.290Z,21.7
2022-09-27T15:33:44.190Z,14.9
2022-09-27T15:38:44.896Z,14.9
2022-09-27T15:43:44.441Z,12
2022-09-27T15:48:44.339Z,12
2022-09-27T15:53:44.727Z,11.7
2022-09-27T15:58:45.059Z,11.7
2022-09-27T16:03:44.599Z,7.3
2022-09-27T16:08:45.066Z,7.3
2022-09-27T16:13:44.785Z,9.4
2022-09-27T16:18:45.114Z,9.4
2022-09-27T16:23:44.396Z,5
2022-09-27T16:28:44.716Z,5
2022-09-27T16:33:45.236Z,0
2022-09-27T16:38:44.392Z,0
2022-09-27T16:43:44.587Z,0
2022-09-27T16:48:44.954Z,0
2022-09-27T16:53:44.328Z,0
2022-09-27T16:58:44.787Z,0
2022-09-27T17:03:44.840Z,0
2022-09-27T17:08:45.164Z,0
2022-09-27T17:13:44.487Z,0
2022-09-27T17:18:44.590Z,0
2022-09-27T17:23:44.939Z,0
2022-09-27T17:28:44.324Z,0
2022-09-27T17:33:44.478Z,0
2022-09-27T17:38:44.710Z,0
2022-09-27T17:43:44.900Z,0
2022-09-27T17:48:45.020Z,0
2022-09-27T17:53:45.184Z,0
2022-09-27T17:58:44.623Z,0
2022-09-27T18:03:44.852Z,0
2022-09-27T18:08:44.987Z,0
2022-09-27T18:13:45.240Z,0
2022-09-27T18:18:44.527Z,0
2022-09-27T18:23:44.922Z,0
2022-09-27T18:28:44.546Z,0
2022-09-27T18:33:44.957Z,0
2022-09-27T18:38:45.162Z,0
2022-09-27T18:43:45.324Z,0
2022-09-27T18:48:44.458Z,0
2022-09-27T18:53:44.700Z,0
2022-09-27T18:58:44.787Z,0
2022-09-27T19:03:45.042Z,0
2022-09-27T19:08:45.100Z,0
2022-09-27T19:13:50.993Z,0
2022-09-27T19:18:45.150Z,0
2022-09-27T19:23:45.280Z,0
2022-09-27T19:28:44.452Z,0
2022-09-27T19:33:44.645Z,0
2022-09-27T19:38:44.741Z,0
2022-09-27T19:43:44.645Z,0
2022-09-27T19:48:44.678Z,0
2022-09-27T19:53:44.960Z,0
2022-09-27T19:58:45.233Z,0
2022-09-27T20:03:44.346Z,0
2022-09-27T20:08:44.850Z,0
2022-09-27T20:13:45.124Z,0
2022-09-27T20:18:45.336Z,0
2022-09-27T20:23:44.458Z,0
2022-09-27T20:28:44.557Z,0
2022-09-27T20:33:44.593Z,0
2022-09-27T20:38:44.820Z,0
2022-09-27T20:43:44.950Z,0
2022-09-27T20:48:45.031Z,0
2022-09-27T20:53:44.299Z,0
2022-09-27T20:58:44.685Z,0
2022-09-27T21:03:44.470Z,0
2022-09-27T21:08:45.124Z,0
2022-09-27T21:13:45.309Z,0
2022-09-27T21:18:45.118Z,0
2022-09-27T21:23:45.319Z,0
2022-09-27T21:28:44.418Z,0
2022-09-27T21:33:44.650Z,0
2022-09-27T21:38:44.806Z,0
2022-09-27T21:43:44.631Z,0
2022-09-27T21:48:44.990Z,0
2022-09-27T21:53:45.071Z,0
2022-09-27T21:58:44.470Z,0
2022-09-27T22:03:45.297Z,0
2022-09-27T22:08:44.735Z,0
2022-09-27T22:13:44.635Z,0
2022-09-27T22:18:44.772Z,0
2022-09-27T22:23:44.966Z,0
2022-09-27T22:28:45.097Z,0
2022-09-27T22:33:45.323Z,0
2022-09-27T22:38:44.468Z,0
2022-09-27T22:43:44.955Z,0
2022-09-27T22:48:45.118Z,0
2022-09-27T22:53:45.347Z,0
2022-09-27T22:58:44.578Z,0
2022-09-27T23:03:44.716Z,0
2022-09-27T23:08:44.850Z,0
2022-09-27T23:13:45.130Z,0
2022-09-27T23:18:45.274Z,0
2022-09-27T23:23:44.415Z,0
2022-09-27T23:28:44.633Z,0
2022-09-27T23:33:44.720Z,0
2022-09-27T23:38:44.829Z,0
2022-09-27T23:43:45.107Z,0
2022-09-27T23:48:45.181Z,0
2022-09-27T23:53:45.435Z,0
2022-09-27T23:58:44.471Z,0
